Flight Number: AVA3018 Duration: 2:15
Departure: Asuncion Pettirossi Intl (SGAS) at 01:00 Distance: 795.828 Nm
Arrival: La Paz J F Kennedy Intl (SLLP) at 03:15 Equipment: B737

Weather Information
Asuncion / Aeropuerto, Paraguay (SGAS) 25-16S 057-38W 101M Aug 14, 2020 - 06:00 PM EDT / 2020.08.14 2200 UTC
Wind: from the SSW (200 degrees) at 16 MPH (14 KT):0
Visibility: greater than 7 mile(s):0 Temperature: 69 F (21 C) Dew Point: 60 F (16 C) Relative Humidity: 73% Pressure (altimeter): 29.68 in. Hg (1005 hPa)
ob: SGAS 142200Z 20014KT CAVOK 21/16 Q1005 cycle: 22
Sunrise: 10:20 Sunset: 21:28 (UTC)

La Paz / Alto, Bolivia (SLLP) 16-31S 068-11W 4038M Aug 14, 2020 - 06:00 PM EDT / 2020.08.14 2200 UTC
Wind: from the WNW (290 degrees) at 14 MPH (12 KT):0
Visibility: greater than 7 mile(s):0
Sky conditions: mostly clear Temperature: 55 F (13 C) Dew Point: 1 F (-17 C) Relative Humidity: 10% Pressure (altimeter): 30.45 in. Hg (1031 hPa)
ob: SLLP 142200Z 29012KT 9999 FEW015 13/M17 Q1031 cycle: 22
Sunrise: 10:52 Sunset: 22:21 (UTC)

TAF:2020/08/14 18:58 TAF SLLP 141650Z 1418/1518 30020G35KT 9999 FEW023 TX15/1420Z TNM08/1511Z BECMG 1422/1502 06005KT TEMPO 1506/1510 2000 BR BECMG 1514/1516 29012KT

This route has never been flown.

Route map